Time;durP1;ratioP1;P1;durP2;ratioP2;P2;SDS_P1;SDS_P2;PMS_P1;PMS_P2;Temp;Humidity;BMP_temperature;BMP_pressure;BME280_temperature;BME280_humidity;BME280_pressure;Samples;Min_cycle;Max_cycle;Signal;HPM_P1;HPM_P2
2024/01/31 00:00:38;;;;;;;34.83;12.25;;;7.60;99.90;;;;;;5019141;28;20018;-68
2024/01/31 00:03:03;;;;;;;22.65;11.23;;;7.50;99.90;;;;;;5018927;28;20033;-68
2024/01/31 00:05:29;;;;;;;25.65;13.20;;;7.40;99.90;;;;;;5019233;28;20030;-69
2024/01/31 00:07:54;;;;;;;20.40;12.02;;;7.30;99.90;;;;;;5019351;28;20022;-69
2024/01/31 00:10:20;;;;;;;20.67;10.93;;;7.30;99.90;;;;;;5019100;28;20054;-69
2024/01/31 00:12:46;;;;;;;20.00;10.50;;;7.30;99.90;;;;;;5019032;28;20025;-69
2024/01/31 00:15:13;;;;;;;22.50;11.38;;;7.30;99.90;;;;;;5019914;28;20117;-68
2024/01/31 00:17:38;;;;;;;22.90;11.82;;;7.30;99.90;;;;;;5018973;28;20030;-68
2024/01/31 00:20:04;;;;;;;24.35;10.27;;;7.30;99.90;;;;;;5019217;28;20026;-69
2024/01/31 00:22:30;;;;;;;27.27;11.75;;;7.30;99.90;;;;;;5019435;28;20026;-69
2024/01/31 00:24:55;;;;;;;21.10;11.05;;;7.30;99.90;;;;;;5019621;28;20026;-68
2024/01/31 00:27:21;;;;;;;23.52;10.80;;;7.20;99.90;;;;;;5018655;28;20033;-68
2024/01/31 00:29:47;;;;;;;20.35;10.60;;;7.20;99.90;;;;;;5018472;28;20029;-68
2024/01/31 00:32:13;;;;;;;20.55;11.10;;;7.20;99.90;;;;;;5018949;28;20053;-68
2024/01/31 00:34:38;;;;;;;21.67;11.25;;;7.20;99.90;;;;;;5019268;28;20022;-68
2024/01/31 00:37:04;;;;;;;24.10;12.50;;;7.20;99.90;;;;;;5018841;28;20022;-68
2024/01/31 00:39:31;;;;;;;26.85;11.57;;;7.20;99.90;;;;;;5019588;28;20029;-71
2024/01/31 00:41:58;;;;;;;22.80;11.13;;;7.20;99.90;;;;;;5019077;28;20022;-69
2024/01/31 00:44:23;;;;;;;19.60;10.43;;;7.20;99.90;;;;;;5018595;28;20030;-69
2024/01/31 00:46:49;;;;;;;25.00;11.55;;;7.20;99.90;;;;;;5018522;28;20029;-69
2024/01/31 00:49:15;;;;;;;17.70;10.15;;;7.30;99.90;;;;;;5018449;28;20026;-68
2024/01/31 00:51:44;;;;;;;26.15;11.65;;;7.30;99.90;;;;;;5017882;28;20099;-69
2024/01/31 00:54:10;;;;;;;23.42;11.07;;;7.30;99.90;;;;;;5018696;28;20064;-69
2024/01/31 00:56:36;;;;;;;23.02;11.32;;;7.30;99.90;;;;;;5018015;28;20057;-68
2024/01/31 00:59:01;;;;;;;20.58;10.77;;;7.30;99.90;;;;;;5018041;28;20022;-68
2024/01/31 01:01:27;;;;;;;20.35;9.98;;;7.20;99.90;;;;;;5019194;28;20117;-68
2024/01/31 01:03:52;;;;;;;18.60;10.70;;;7.20;99.90;;;;;;5018753;28;20107;-67
2024/01/31 01:06:18;;;;;;;19.45;10.10;;;7.20;99.90;;;;;;5017824;28;20033;-67
2024/01/31 01:08:43;;;;;;;21.42;10.80;;;7.20;99.90;;;;;;5018669;28;20026;-67
2024/01/31 01:11:09;;;;;;;20.90;10.30;;;7.20;99.90;;;;;;5017743;28;20033;-67
2024/01/31 01:13:34;;;;;;;22.70;10.27;;;7.20;99.90;;;;;;5017625;28;20128;-66
2024/01/31 01:16:00;;;;;;;27.90;10.95;;;7.30;99.90;;;;;;5018431;28;20026;-67
2024/01/31 01:18:25;;;;;;;23.42;10.20;;;7.30;99.90;;;;;;5018038;28;20022;-67
2024/01/31 01:20:51;;;;;;;18.25;9.98;;;7.20;99.90;;;;;;5017818;28;20026;-67
2024/01/31 01:23:17;;;;;;;22.65;10.80;;;7.20;99.90;;;;;;5017825;28;20044;-67
2024/01/31 01:25:42;;;;;;;24.17;10.85;;;7.20;99.90;;;;;;5018690;28;20052;-67
2024/01/31 01:28:08;;;;;;;20.15;10.20;;;7.10;99.90;;;;;;5018379;28;20028;-67
2024/01/31 01:30:33;;;;;;;21.63;10.68;;;7.10;99.90;;;;;;5018114;28;20026;-67
2024/01/31 01:32:59;;;;;;;25.15;10.45;;;7.10;99.90;;;;;;5018623;28;20053;-67
2024/01/31 01:35:24;;;;;;;23.98;10.10;;;7.20;99.90;;;;;;5017473;28;20026;-67
2024/01/31 01:37:50;;;;;;;26.25;10.60;;;7.20;99.90;;;;;;5017325;28;20029;-67
2024/01/31 01:40:16;;;;;;;20.83;10.32;;;7.10;99.90;;;;;;5017500;28;20113;-67
2024/01/31 01:42:42;;;;;;;30.30;11.70;;;7.10;99.90;;;;;;5018293;28;20022;-66
2024/01/31 01:45:08;;;;;;;20.90;10.15;;;7.10;99.90;;;;;;5017368;28;20028;-67
2024/01/31 01:47:35;;;;;;;21.77;10.43;;;7.10;99.90;;;;;;5018524;28;20028;-66
2024/01/31 01:50:05;;;;;;;18.88;10.05;;;7.10;99.90;;;;;;5017986;28;20025;-66
2024/01/31 01:52:32;;;;;;;21.17;10.77;;;7.10;99.90;;;;;;5017674;28;20084;-67
2024/01/31 01:54:58;;;;;;;21.05;10.02;;;7.20;99.90;;;;;;5017879;28;20087;-67
2024/01/31 01:57:24;;;;;;;21.52;9.93;;;7.20;99.90;;;;;;5016926;28;20025;-67
2024/01/31 01:59:51;;;;;;;18.70;9.63;;;7.20;99.90;;;;;;5016937;28;20025;-67
2024/01/31 02:02:17;;;;;;;20.02;10.10;;;7.30;99.90;;;;;;5016922;28;20029;-67
2024/01/31 02:04:43;;;;;;;20.30;9.38;;;7.20;99.90;;;;;;5017841;28;20101;-67
2024/01/31 02:07:09;;;;;;;23.05;10.02;;;7.20;99.90;;;;;;5017789;28;20084;-67
2024/01/31 02:09:35;;;;;;;19.42;9.32;;;7.30;99.90;;;;;;5018053;28;20033;-67
2024/01/31 02:12:00;;;;;;;18.85;9.52;;;7.20;99.90;;;;;;5016621;28;20030;-67
2024/01/31 02:14:26;;;;;;;15.68;9.10;;;7.20;99.90;;;;;;5016793;28;20029;-66
2024/01/31 02:16:56;;;;;;;15.75;8.93;;;7.20;99.90;;;;;;5016919;28;20124;-67
2024/01/31 02:19:22;;;;;;;21.20;8.63;;;7.20;99.90;;;;;;5016784;28;20044;-67
2024/01/31 02:21:47;;;;;;;14.52;7.57;;;7.30;99.90;;;;;;5016686;28;20099;-67
2024/01/31 02:24:13;;;;;;;11.68;6.75;;;7.30;99.90;;;;;;5016660;28;20028;-67
2024/01/31 02:26:38;;;;;;;13.98;6.03;;;7.40;99.90;;;;;;5017508;28;20026;-67
2024/01/31 02:29:04;;;;;;;14.25;6.30;;;7.50;99.90;;;;;;5017199;28;20033;-67
2024/01/31 02:31:29;;;;;;;11.15;4.88;;;7.50;99.90;;;;;;5016834;28;20120;-67
2024/01/31 02:33:55;;;;;;;7.22;4.85;;;7.50;99.90;;;;;;5016612;28;20026;-67
2024/01/31 02:36:20;;;;;;;10.68;4.80;;;7.60;99.90;;;;;;5016335;28;20093;-66
2024/01/31 02:38:46;;;;;;;9.50;4.30;;;7.70;99.90;;;;;;5016996;28;20029;-67
2024/01/31 02:41:11;;;;;;;8.60;4.47;;;7.80;99.90;;;;;;5017171;28;20026;-66
2024/01/31 02:43:37;;;;;;;10.77;4.47;;;7.80;99.90;;;;;;5016297;28;20018;-67
2024/01/31 02:46:03;;;;;;;7.47;3.83;;;7.80;99.90;;;;;;5016371;28;20029;-67
2024/01/31 02:48:28;;;;;;;9.45;4.10;;;7.80;99.90;;;;;;5017140;28;20048;-67
2024/01/31 02:50:54;;;;;;;6.90;3.47;;;7.80;99.90;;;;;;5017382;28;20131;-67
2024/01/31 02:53:20;;;;;;;6.38;3.50;;;7.80;99.90;;;;;;5016416;28;20026;-67
2024/01/31 02:55:45;;;;;;;6.07;4.00;;;7.80;99.90;;;;;;5017929;28;20017;-67
2024/01/31 02:58:11;;;;;;;9.32;4.65;;;7.80;99.90;;;;;;5020411;28;20032;-67
2024/01/31 03:00:37;;;;;;;9.07;5.20;;;7.80;99.90;;;;;;5020454;28;20018;-67
2024/01/31 03:03:03;;;;;;;9.27;4.45;;;7.70;99.90;;;;;;5021627;28;20026;-67
2024/01/31 03:05:28;;;;;;;11.68;4.93;;;7.70;99.90;;;;;;5020451;28;20025;-67
2024/01/31 03:07:54;;;;;;;8.57;4.40;;;7.70;99.90;;;;;;5020437;28;20021;-66
2024/01/31 03:10:19;;;;;;;12.27;4.68;;;7.70;99.90;;;;;;5020948;28;20045;-66
2024/01/31 03:12:45;;;;;;;10.48;4.53;;;7.60;99.90;;;;;;5020352;28;20018;-67
2024/01/31 03:15:11;;;;;;;9.60;4.88;;;7.60;99.90;;;;;;5020100;28;20052;-67
2024/01/31 03:17:36;;;;;;;9.60;4.13;;;7.70;99.90;;;;;;5020510;28;20080;-67
2024/01/31 03:20:05;;;;;;;10.35;4.88;;;7.70;99.90;;;;;;5020728;28;20025;-67
2024/01/31 03:22:30;;;;;;;12.98;4.32;;;7.60;99.90;;;;;;5019769;28;20077;-67
2024/01/31 03:24:56;;;;;;;11.88;5.43;;;7.50;99.90;;;;;;5020132;28;20029;-67
2024/01/31 03:27:21;;;;;;;8.77;5.00;;;7.50;99.90;;;;;;5020999;28;20030;-67
2024/01/31 03:29:47;;;;;;;10.52;5.13;;;7.60;99.90;;;;;;5019871;28;20022;-67
2024/01/31 03:32:12;;;;;;;7.28;3.70;;;7.60;99.90;;;;;;5019594;28;20033;-67
2024/01/31 03:34:38;;;;;;;7.03;3.63;;;7.70;99.90;;;;;;5020459;28;20102;-66
2024/01/31 03:37:05;;;;;;;10.40;3.88;;;7.70;99.90;;;;;;5019846;28;20026;-66
2024/01/31 03:39:34;;;;;;;7.22;4.00;;;7.60;99.90;;;;;;5019862;28;20018;-67
2024/01/31 03:41:59;;;;;;;7.15;3.20;;;7.70;99.90;;;;;;5019487;28;20026;-67
2024/01/31 03:44:25;;;;;;;6.18;3.75;;;7.70;99.90;;;;;;5019378;28;20118;-67
2024/01/31 03:46:51;;;;;;;6.30;3.58;;;7.60;99.90;;;;;;5020252;28;20026;-67
2024/01/31 03:49:16;;;;;;;6.43;3.63;;;7.60;99.90;;;;;;5019364;28;20033;-67
2024/01/31 03:51:42;;;;;;;8.95;3.08;;;7.60;99.90;;;;;;5019283;28;20045;-67
2024/01/31 03:54:07;;;;;;;8.35;3.55;;;7.60;99.90;;;;;;5019216;28;20124;-67
2024/01/31 03:56:33;;;;;;;5.97;3.17;;;7.60;99.90;;;;;;5019901;28;20028;-67
2024/01/31 03:58:58;;;;;;;5.45;3.08;;;7.60;99.90;;;;;;5019402;28;20094;-67
2024/01/31 04:01:24;;;;;;;5.35;3.42;;;7.60;99.90;;;;;;5018869;28;20018;-66
2024/01/31 04:03:49;;;;;;;7.53;3.40;;;7.60;99.90;;;;;;5018905;28;20113;-67
2024/01/31 04:06:16;;;;;;;13.90;3.72;;;7.50;99.90;;;;;;5019202;28;20040;-67
2024/01/31 04:08:42;;;;;;;9.60;4.07;;;7.60;99.90;;;;;;5018334;28;20041;-67
2024/01/31 04:11:07;;;;;;;9.45;4.35;;;7.60;99.90;;;;;;5018778;28;20026;-67
2024/01/31 04:13:33;;;;;;;9.27;4.30;;;7.50;99.90;;;;;;5018920;28;20030;-67
2024/01/31 04:15:58;;;;;;;7.60;3.97;;;7.40;99.90;;;;;;5018773;28;20029;-67
2024/01/31 04:18:24;;;;;;;6.75;3.78;;;7.50;99.90;;;;;;5019406;28;20041;-67
2024/01/31 04:20:50;;;;;;;9.45;4.28;;;7.40;99.90;;;;;;5020070;28;20026;-67
2024/01/31 04:23:15;;;;;;;9.07;4.20;;;7.40;99.90;;;;;;5019002;28;20026;-67
2024/01/31 04:25:41;;;;;;;8.77;3.55;;;7.40;99.90;;;;;;5020125;28;20047;-67
2024/01/31 04:28:06;;;;;;;10.57;4.50;;;7.50;99.90;;;;;;5019510;28;20032;-66
2024/01/31 04:30:32;;;;;;;8.45;4.38;;;7.50;99.90;;;;;;5019581;28;20061;-67
2024/01/31 04:33:01;;;;;;;8.07;4.60;;;7.50;99.90;;;;;;5018440;28;20030;-67
2024/01/31 04:35:28;;;;;;;7.00;3.33;;;7.50;99.90;;;;;;5018631;28;20026;-67
2024/01/31 04:37:54;;;;;;;5.60;3.63;;;7.50;99.90;;;;;;5019438;28;20029;-67
2024/01/31 04:40:19;;;;;;;7.78;4.22;;;7.50;99.90;;;;;;5019369;28;20082;-67
2024/01/31 04:42:47;;;;;;;9.02;3.97;;;7.50;99.90;;;;;;5018578;28;20022;-67
2024/01/31 04:45:13;;;;;;;8.57;3.72;;;7.60;99.90;;;;;;5019212;28;20037;-66
2024/01/31 04:47:40;;;;;;;7.63;3.97;;;7.60;99.90;;;;;;5018196;28;20033;-67
2024/01/31 04:50:06;;;;;;;9.63;4.45;;;7.60;99.90;;;;;;5018441;28;20120;-66
2024/01/31 04:52:32;;;;;;;7.30;4.10;;;7.60;99.90;;;;;;5018089;28;20069;-67
2024/01/31 04:54:57;;;;;;;10.00;4.38;;;7.60;99.90;;;;;;5018416;28;20118;-67
2024/01/31 04:57:23;;;;;;;8.00;4.13;;;7.70;99.90;;;;;;5018012;28;20061;-67
2024/01/31 04:59:48;;;;;;;11.93;4.28;;;7.80;99.90;;;;;;5018326;28;20026;-66
2024/01/31 05:02:14;;;;;;;11.23;4.20;;;7.90;99.90;;;;;;5018750;28;20017;-67
2024/01/31 05:04:39;;;;;;;6.70;3.85;;;7.90;99.90;;;;;;5017970;28;20022;-67
2024/01/31 05:07:05;;;;;;;9.57;4.20;;;8.00;99.90;;;;;;5017972;28;20037;-67
2024/01/31 05:09:31;;;;;;;12.25;4.10;;;8.00;99.90;;;;;;5018159;28;20029;-67
2024/01/31 05:11:57;;;;;;;8.65;4.80;;;7.90;99.90;;;;;;5018104;28;20025;-67
2024/01/31 05:14:23;;;;;;;9.05;4.60;;;7.70;99.90;;;;;;5018552;28;20033;-67
2024/01/31 05:16:48;;;;;;;10.90;4.35;;;7.60;99.90;;;;;;5018455;28;20030;-66
2024/01/31 05:19:14;;;;;;;10.77;4.75;;;7.60;99.90;;;;;;5016601;28;20045;-67
2024/01/31 05:21:51;;;;;;;9.00;5.10;;;7.70;99.90;;;;;;5017578;28;20022;-67
2024/01/31 05:24:17;;;;;;;9.73;4.72;;;7.60;99.90;;;;;;5017523;28;20048;-67
2024/01/31 05:26:45;;;;;;;14.27;5.63;;;7.60;99.90;;;;;;5018691;28;20029;-66
2024/01/31 05:29:10;;;;;;;12.65;4.90;;;7.60;99.90;;;;;;5017371;28;20036;-67
2024/01/31 05:31:36;;;;;;;8.68;3.90;;;7.50;99.90;;;;;;5017298;28;20026;-67
2024/01/31 05:34:02;;;;;;;10.20;4.68;;;7.70;99.90;;;;;;5018215;28;20181;-67
2024/01/31 05:36:27;;;;;;;9.23;4.55;;;7.90;99.90;;;;;;5017654;28;20025;-67
2024/01/31 05:38:53;;;;;;;9.70;4.38;;;7.90;99.90;;;;;;5017520;28;20030;-67
2024/01/31 05:41:18;;;;;;;6.88;4.15;;;7.90;99.90;;;;;;5018351;28;20021;-67
2024/01/31 05:43:45;;;;;;;8.93;4.32;;;7.90;99.90;;;;;;5017392;28;20113;-67
2024/01/31 05:46:11;;;;;;;8.52;4.32;;;7.90;99.90;;;;;;5017261;28;20037;-67
2024/01/31 05:48:36;;;;;;;8.27;4.05;;;7.90;99.90;;;;;;5017133;28;20030;-67
2024/01/31 05:51:02;;;;;;;14.50;4.60;;;7.80;99.90;;;;;;5017319;28;20038;-67
2024/01/31 05:53:27;;;;;;;8.70;4.10;;;7.70;99.90;;;;;;5017203;28;20090;-67
2024/01/31 05:55:53;;;;;;;10.68;4.70;;;7.70;99.90;;;;;;5016984;28;20028;-66
2024/01/31 05:58:18;;;;;;;10.80;4.60;;;7.60;99.90;;;;;;5017803;28;20026;-67
2024/01/31 06:00:46;;;;;;;9.18;4.43;;;7.60;99.90;;;;;;5017537;28;20025;-67
2024/01/31 06:03:12;;;;;;;8.65;4.60;;;7.60;99.90;;;;;;5018113;28;20124;-67
2024/01/31 06:05:37;;;;;;;12.15;5.13;;;7.50;99.90;;;;;;5018120;28;20021;-67
2024/01/31 06:08:03;;;;;;;11.20;4.85;;;7.50;99.90;;;;;;5016689;28;20029;-67
2024/01/31 06:10:28;;;;;;;9.93;4.20;;;7.50;99.90;;;;;;5017045;28;20018;-67
2024/01/31 06:12:54;;;;;;;15.02;4.97;;;7.50;99.90;;;;;;5016700;28;20100;-67
2024/01/31 06:15:20;;;;;;;11.48;4.88;;;7.70;99.90;;;;;;5016711;28;20030;-67
2024/01/31 06:17:46;;;;;;;12.93;5.45;;;7.90;99.90;;;;;;5017698;28;20045;-67
2024/01/31 06:20:12;;;;;;;13.55;5.13;;;8.00;99.90;;;;;;5017493;28;20026;-67
2024/01/31 06:22:37;;;;;;;12.45;5.68;;;8.00;99.90;;;;;;5016891;28;20075;-67
2024/01/31 06:25:03;;;;;;;10.90;4.93;;;8.00;99.90;;;;;;5017946;28;20058;-67
2024/01/31 06:27:29;;;;;;;8.77;4.50;;;8.00;99.90;;;;;;5017324;28;20099;-67
2024/01/31 06:29:54;;;;;;;10.35;5.43;;;8.10;99.90;;;;;;5016519;28;20038;-66
2024/01/31 06:32:29;;;;;;;12.85;5.38;;;7.90;99.90;;;;;;5016464;28;20037;-67
2024/01/31 06:34:55;;;;;;;12.38;5.35;;;7.80;99.90;;;;;;5017587;28;20017;-67
2024/01/31 06:37:21;;;;;;;13.57;5.32;;;7.70;99.90;;;;;;5016394;28;20033;-67
2024/01/31 06:39:46;;;;;;;8.32;4.82;;;7.60;99.90;;;;;;5016293;28;20029;-67
2024/01/31 06:42:12;;;;;;;11.45;5.30;;;7.60;99.90;;;;;;5016462;28;20022;-67
2024/01/31 06:44:37;;;;;;;15.70;5.95;;;7.50;99.90;;;;;;5016298;28;20026;-67
2024/01/31 06:47:05;;;;;;;10.25;5.43;;;7.60;99.90;;;;;;5016877;28;20041;-67
2024/01/31 06:49:30;;;;;;;11.50;5.00;;;7.60;99.90;;;;;;5017088;28;20037;-67
2024/01/31 06:51:56;;;;;;;12.75;5.38;;;7.50;99.90;;;;;;5016430;28;20033;-67
2024/01/31 06:54:21;;;;;;;12.05;5.35;;;7.60;99.90;;;;;;5016286;28;20033;-67
2024/01/31 06:56:47;;;;;;;21.15;5.90;;;7.50;99.90;;;;;;5016034;28;20050;-66
2024/01/31 06:59:12;;;;;;;10.73;5.18;;;7.60;99.90;;;;;;5016262;28;20137;-67
2024/01/31 07:01:38;;;;;;;11.55;5.57;;;7.70;99.90;;;;;;5016401;28;20114;-67
2024/01/31 07:04:03;;;;;;;12.43;5.95;;;7.70;99.90;;;;;;5017145;28;20026;-67
2024/01/31 07:06:29;;;;;;;11.98;6.28;;;7.80;99.90;;;;;;5016548;28;20025;-67
2024/01/31 07:08:55;;;;;;;11.57;6.30;;;7.80;99.90;;;;;;5017197;28;20026;-67
2024/01/31 07:11:21;;;;;;;13.13;7.18;;;7.80;99.90;;;;;;5016333;28;20113;-65
2024/01/31 07:13:46;;;;;;;15.40;6.60;;;7.70;99.90;;;;;;5017261;28;20117;-67
2024/01/31 07:16:12;;;;;;;15.15;6.80;;;7.60;99.90;;;;;;5016866;28;20061;-67
2024/01/31 07:18:41;;;;;;;23.73;7.82;;;7.50;99.90;;;;;;5017037;28;20045;-67
2024/01/31 07:21:10;;;;;;;11.82;6.30;;;7.50;99.90;;;;;;5016792;28;20025;-67
2024/01/31 07:23:36;;;;;;;13.15;7.07;;;7.40;99.90;;;;;;5015955;28;20069;-67
2024/01/31 07:26:02;;;;;;;14.57;6.95;;;7.40;99.90;;;;;;5016844;28;20025;-66
2024/01/31 07:28:28;;;;;;;15.43;6.35;;;7.40;99.90;;;;;;5016688;28;20153;-67
2024/01/31 07:30:54;;;;;;;12.70;6.47;;;7.40;99.90;;;;;;5016011;28;20060;-66
2024/01/31 07:33:20;;;;;;;11.57;6.05;;;7.40;99.90;;;;;;5015860;28;20029;-67
2024/01/31 07:35:45;;;;;;;12.73;6.10;;;7.40;99.90;;;;;;5015785;28;20030;-67
2024/01/31 07:38:11;;;;;;;10.57;5.57;;;7.50;99.90;;;;;;5015871;28;20019;-67
2024/01/31 07:40:38;;;;;;;11.60;6.40;;;7.50;99.90;;;;;;5016674;28;20065;-67
2024/01/31 07:43:04;;;;;;;11.45;5.32;;;7.50;99.90;;;;;;5018981;28;20026;-67
2024/01/31 07:45:29;;;;;;;9.75;5.95;;;7.60;99.90;;;;;;5019523;28;20022;-67
2024/01/31 07:47:56;;;;;;;15.10;6.18;;;7.50;99.90;;;;;;5019425;28;20137;-66
2024/01/31 07:50:22;;;;;;;15.45;6.30;;;7.50;99.90;;;;;;5019135;28;20061;-67
2024/01/31 07:52:48;;;;;;;10.02;5.65;;;7.50;99.90;;;;;;5020224;28;20048;-67
2024/01/31 07:55:13;;;;;;;16.60;7.00;;;7.50;99.90;;;;;;5020142;28;20033;-66
2024/01/31 07:57:39;;;;;;;13.77;5.90;;;7.40;99.90;;;;;;5019029;28;20033;-66
2024/01/31 08:00:09;;;;;;;20.58;7.60;;;7.40;99.90;;;;;;5020088;28;20029;-67
2024/01/31 08:02:34;;;;;;;13.77;5.85;;;7.40;99.90;;;;;;5019005;28;20057;-66
2024/01/31 08:05:00;;;;;;;11.95;5.90;;;7.50;99.90;;;;;;5019943;28;20022;-66
2024/01/31 08:07:26;;;;;;;12.48;6.10;;;7.40;99.90;;;;;;5019703;28;20029;-67
2024/01/31 08:09:52;;;;;;;15.07;6.63;;;7.40;99.90;;;;;;5019081;28;20021;-66
2024/01/31 08:12:18;;;;;;;19.58;6.35;;;7.40;99.90;;;;;;5019641;28;20034;-67
2024/01/31 08:14:43;;;;;;;11.30;5.38;;;7.40;99.90;;;;;;5019341;28;20044;-68
2024/01/31 08:17:10;;;;;;;15.20;6.38;;;7.50;99.90;;;;;;5018600;28;20026;-69
2024/01/31 08:19:35;;;;;;;16.45;6.95;;;7.50;99.90;;;;;;5019423;28;20056;-69
2024/01/31 08:22:01;;;;;;;11.73;5.80;;;7.50;99.90;;;;;;5019638;28;20042;-69
2024/01/31 08:24:27;;;;;;;11.85;5.80;;;7.60;99.90;;;;;;5019958;28;20072;-69
2024/01/31 08:26:52;;;;;;;20.48;5.63;;;7.60;99.90;;;;;;5018610;28;20030;-69
2024/01/31 08:29:18;;;;;;;16.70;6.20;;;7.60;99.90;;;;;;5018381;28;20116;-69
2024/01/31 08:31:43;;;;;;;11.27;5.93;;;7.70;99.90;;;;;;5019288;28;20064;-69
2024/01/31 08:34:10;;;;;;;9.93;5.72;;;7.70;99.90;;;;;;5018548;28;20029;-69
2024/01/31 08:36:36;;;;;;;13.85;5.40;;;7.80;99.90;;;;;;5019071;28;20022;-69
2024/01/31 08:39:02;;;;;;;14.25;6.32;;;7.80;99.90;;;;;;5018332;28;20026;-65
2024/01/31 08:41:28;;;;;;;10.75;5.60;;;7.80;99.90;;;;;;5019572;28;20033;-65
2024/01/31 08:43:53;;;;;;;9.25;5.30;;;7.80;99.90;;;;;;5018115;28;20017;-65
2024/01/31 08:46:19;;;;;;;10.48;5.63;;;7.90;99.90;;;;;;5018260;28;20033;-64
2024/01/31 08:48:46;;;;;;;9.05;4.97;;;7.90;99.90;;;;;;5018093;28;20030;-64
2024/01/31 08:51:14;;;;;;;12.93;4.78;;;7.90;99.90;;;;;;5018646;28;20057;-64
2024/01/31 08:53:39;;;;;;;12.77;6.07;;;7.90;99.90;;;;;;5017987;28;20033;-64
2024/01/31 08:56:05;;;;;;;10.77;5.20;;;8.00;99.90;;;;;;5017878;28;20026;-64
2024/01/31 08:58:31;;;;;;;12.90;5.88;;;7.90;99.90;;;;;;5018761;28;20018;-65
2024/01/31 09:00:59;;;;;;;13.85;5.28;;;7.90;99.90;;;;;;5018014;28;20029;-64
2024/01/31 09:03:25;;;;;;;11.43;5.57;;;7.90;99.90;;;;;;5017859;28;20040;-65
2024/01/31 09:05:51;;;;;;;9.90;4.82;;;8.00;99.90;;;;;;5019078;28;20029;-66
2024/01/31 09:08:16;;;;;;;11.75;5.22;;;8.30;99.90;;;;;;5018917;28;20030;-64
2024/01/31 09:10:42;;;;;;;12.75;5.40;;;8.50;99.90;;;;;;5017990;28;20034;-66
2024/01/31 09:13:07;;;;;;;15.68;4.75;;;8.60;99.90;;;;;;5017875;28;20032;-65
2024/01/31 09:15:33;;;;;;;13.85;5.10;;;8.50;99.90;;;;;;5017672;28;20105;-64
2024/01/31 09:17:58;;;;;;;11.48;5.07;;;8.50;99.90;;;;;;5018271;28;20049;-65
2024/01/31 09:20:24;;;;;;;11.32;4.68;;;8.60;99.90;;;;;;5017905;28;20025;-64
2024/01/31 09:22:49;;;;;;;13.13;5.45;;;8.60;99.90;;;;;;5017515;28;20026;-63
2024/01/31 09:25:15;;;;;;;12.65;4.28;;;8.60;99.90;;;;;;5018203;28;20045;-64
2024/01/31 09:27:41;;;;;;;8.73;4.53;;;8.70;99.90;;;;;;5019086;28;20026;-71
2024/01/31 09:30:07;;;;;;;9.10;5.00;;;8.70;99.90;;;;;;5017559;28;20053;-71
2024/01/31 09:32:33;;;;;;;12.95;5.05;;;8.70;99.90;;;;;;5017155;28;20053;-71
2024/01/31 09:34:59;;;;;;;10.63;5.00;;;8.70;99.90;;;;;;5018231;28;20033;-72
2024/01/31 09:37:24;;;;;;;9.10;4.63;;;8.70;99.90;;;;;;5018274;28;20117;-70
2024/01/31 09:39:56;;;;;;;7.63;4.15;;;8.70;99.90;;;;;;5018189;28;20022;-71
2024/01/31 09:42:21;;;;;;;9.35;4.60;;;8.90;99.90;;;;;;5017381;28;20117;-71
2024/01/31 09:44:50;;;;;;;15.57;5.03;;;8.90;99.90;;;;;;5017404;28;20068;-70
2024/01/31 09:47:15;;;;;;;12.55;5.30;;;8.90;99.90;;;;;;5017528;28;20033;-70
2024/01/31 09:49:41;;;;;;;10.70;5.00;;;8.70;99.90;;;;;;5017336;28;20026;-69
2024/01/31 09:52:11;;;;;;;12.80;5.78;;;8.80;99.90;;;;;;5017110;28;20104;-70
2024/01/31 09:54:36;;;;;;;8.20;4.95;;;9.00;99.90;;;;;;5017510;28;20029;-70
2024/01/31 09:57:02;;;;;;;12.93;5.47;;;9.00;99.90;;;;;;5016982;28;20022;-70
2024/01/31 09:59:28;;;;;;;11.90;5.75;;;8.90;99.90;;;;;;5016982;28;20093;-70
2024/01/31 10:01:56;;;;;;;11.95;4.72;;;8.80;99.90;;;;;;5016905;28;20053;-70
2024/01/31 10:04:21;;;;;;;8.82;4.35;;;8.90;99.90;;;;;;5016903;28;20025;-70
2024/01/31 10:06:47;;;;;;;10.43;4.63;;;8.90;99.90;;;;;;5016591;28;20022;-70
2024/01/31 10:09:13;;;;;;;9.63;4.75;;;8.80;99.90;;;;;;5016972;28;20088;-70
2024/01/31 10:11:44;;;;;;;10.18;4.85;;;8.70;99.90;;;;;;5016766;28;20057;-70
2024/01/31 10:14:12;;;;;;;11.15;4.72;;;8.70;99.90;;;;;;5017088;28;20053;-70
2024/01/31 10:16:37;;;;;;;11.75;5.90;;;8.80;99.90;;;;;;5016941;28;20100;-70
2024/01/31 10:19:03;;;;;;;9.63;5.00;;;8.80;99.90;;;;;;5017005;28;20124;-70
2024/01/31 10:21:32;;;;;;;11.73;5.95;;;8.80;99.90;;;;;;5017288;28;20056;-70
2024/01/31 10:24:03;;;;;;;10.23;5.13;;;8.70;99.90;;;;;;5016728;28;20030;-70
2024/01/31 10:26:29;;;;;;;;;;;8.70;99.90;;;;;;5017468;28;20037;-71
2024/01/31 10:28:57;;;;;;;10.82;4.60;;;8.90;99.90;;;;;;5017228;28;19905;-69
2024/01/31 10:31:23;;;;;;;10.32;4.50;;;9.00;99.90;;;;;;5016372;28;20040;-70
2024/01/31 10:33:49;;;;;;;10.02;4.85;;;9.10;99.90;;;;;;5016902;28;20021;-71
2024/01/31 10:36:17;;;;;;;9.85;4.18;;;9.00;99.90;;;;;;5016967;28;20026;-70
2024/01/31 10:38:44;;;;;;;12.48;4.88;;;8.80;99.90;;;;;;5017241;28;20034;-70
2024/01/31 10:41:11;;;;;;;10.57;5.55;;;8.70;99.90;;;;;;5016658;28;20021;-70
2024/01/31 10:43:37;;;;;;;7.78;3.72;;;8.60;99.90;;;;;;5016670;28;20022;-70
2024/01/31 10:46:03;;;;;;;9.23;4.82;;;8.60;99.90;;;;;;5016542;28;20026;-70
2024/01/31 10:48:28;;;;;;;12.52;4.88;;;8.60;99.90;;;;;;5016434;28;20120;-70
2024/01/31 10:50:57;;;;;;;15.77;5.68;;;8.60;99.90;;;;;;5016812;28;20092;-69
2024/01/31 10:53:25;;;;;;;13.07;6.22;;;8.50;99.90;;;;;;5016568;28;20030;-70
2024/01/31 10:55:52;;;;;;;12.35;5.38;;;8.70;99.90;;;;;;5017007;28;20095;-70
2024/01/31 10:58:21;;;;;;;13.45;7.13;;;8.70;99.90;;;;;;5016394;28;20117;-70
2024/01/31 11:00:47;;;;;;;13.40;6.50;;;8.70;99.90;;;;;;5016377;28;20022;-70
2024/01/31 11:03:14;;;;;;;15.75;7.65;;;8.70;99.90;;;;;;5016597;28;20026;-70
2024/01/31 11:05:41;;;;;;;14.93;7.25;;;8.80;99.90;;;;;;5016933;28;20080;-71
2024/01/31 11:08:24;;;;;;;14.98;6.93;;;9.00;99.90;;;;;;5016838;28;20095;-70
2024/01/31 11:10:50;;;;;;;16.08;7.15;;;9.00;99.90;;;;;;5016828;28;20085;-70
2024/01/31 11:13:16;;;;;;;10.90;5.25;;;9.10;99.90;;;;;;5016326;28;20033;-70
2024/01/31 11:15:43;;;;;;;12.10;4.85;;;9.00;99.90;;;;;;5016739;28;20017;-70
2024/01/31 11:18:10;;;;;;;8.27;4.88;;;8.90;99.90;;;;;;5019426;28;20026;-70
2024/01/31 11:20:38;;;;;;;13.48;5.00;;;8.80;99.90;;;;;;5020201;28;20133;-69
2024/01/31 11:23:05;;;;;;;9.77;5.35;;;8.70;99.90;;;;;;5021028;28;20022;-68
2024/01/31 11:25:37;;;;;;;8.73;4.82;;;8.70;99.90;;;;;;5020139;28;20048;-67
2024/01/31 11:28:06;;;;;;;10.70;4.38;;;8.60;99.90;;;;;;5020774;28;20030;-67
2024/01/31 11:30:32;;;;;;;13.82;4.88;;;8.60;99.90;;;;;;5019843;28;20026;-67
2024/01/31 11:33:03;;;;;;;9.98;4.32;;;8.70;99.90;;;;;;5019915;28;20121;-68
2024/01/31 11:35:29;;;;;;;14.57;5.43;;;8.90;99.90;;;;;;5019962;28;20022;-68
2024/01/31 11:37:59;;;;;;;12.40;6.00;;;9.00;99.90;;;;;;5019734;28;20030;-67
2024/01/31 11:40:25;;;;;;;11.43;5.70;;;9.20;99.90;;;;;;5019466;28;20109;-67
2024/01/31 11:42:52;;;;;;;11.98;5.55;;;9.20;99.90;;;;;;5019821;28;20045;-70
2024/01/31 11:45:18;;;;;;;12.32;6.13;;;9.00;99.90;;;;;;5019758;28;20022;-69
2024/01/31 11:47:44;;;;;;;15.02;6.28;;;9.00;99.90;;;;;;5020135;28;20080;-70
2024/01/31 11:50:09;;;;;;;14.07;5.53;;;9.00;99.90;;;;;;5019474;28;20030;-70
2024/01/31 11:52:35;;;;;;;12.27;5.68;;;9.10;99.90;;;;;;5019551;28;20041;-70
2024/01/31 11:55:01;;;;;;;13.00;6.25;;;9.20;99.90;;;;;;5019626;28;20026;-70
2024/01/31 11:57:26;;;;;;;15.05;6.10;;;9.00;99.90;;;;;;5020139;28;20022;-70
2024/01/31 11:59:53;;;;;;;13.65;6.45;;;9.00;99.90;;;;;;5019175;28;20080;-70
2024/01/31 12:02:19;;;;;;;16.58;5.85;;;9.10;99.90;;;;;;5019346;28;20025;-70
2024/01/31 12:04:56;;;;;;;14.80;6.53;;;9.10;99.90;;;;;;5019475;28;20029;-70
2024/01/31 12:07:22;;;;;;;14.68;6.50;;;9.10;99.90;;;;;;5019285;28;20026;-70
2024/01/31 12:09:47;;;;;;;15.68;6.65;;;9.00;99.90;;;;;;5019321;28;20022;-70
2024/01/31 12:12:13;;;;;;;13.55;5.90;;;9.10;99.90;;;;;;5018956;28;20065;-69
2024/01/31 12:14:40;;;;;;;12.75;5.88;;;9.00;99.90;;;;;;5019184;28;20026;-70
2024/01/31 12:17:22;;;;;;;17.50;6.35;;;9.10;99.90;;;;;;5019791;28;20030;-70
2024/01/31 12:19:49;;;;;;;16.38;6.93;;;9.00;99.90;;;;;;5019352;28;20022;-69
2024/01/31 12:22:17;;;;;;;17.52;6.50;;;8.90;99.90;;;;;;5019161;28;20030;-70
2024/01/31 12:24:43;;;;;;;14.90;6.28;;;9.00;99.90;;;;;;5018946;28;20022;-70
2024/01/31 12:27:08;;;;;;;12.40;5.97;;;9.10;99.90;;;;;;5019470;28;20080;-70
2024/01/31 12:29:34;;;;;;;15.65;6.15;;;9.20;99.90;;;;;;5018628;28;20052;-69
2024/01/31 12:31:59;;;;;;;7.00;3.90;;;9.20;99.90;;;;;;5018749;28;20022;-70
2024/01/31 12:34:25;;;;;;;8.93;3.53;;;9.20;99.90;;;;;;5019403;28;20033;-70
2024/01/31 12:36:50;;;;;;;6.20;3.05;;;9.10;99.90;;;;;;5019475;28;20029;-70
2024/01/31 12:39:19;;;;;;;6.35;3.20;;;9.10;99.90;;;;;;5018854;28;20030;-70
2024/01/31 12:41:45;;;;;;;6.18;3.70;;;9.00;99.90;;;;;;5018469;28;20022;-70